sensor_id;sensor_type;location;lat;lon;timestamp;temperature;humidity
24017;DHT22;12222;50.090;19.702;2022-08-25T00:03:15;17.10;99.90
24017;DHT22;12222;50.090;19.702;2022-08-25T00:08:38;17.10;99.90
24017;DHT22;12222;50.090;19.702;2022-08-25T00:14:04;17.10;99.90
24017;DHT22;12222;50.090;19.702;2022-08-25T00:19:31;17.10;99.90
24017;DHT22;12222;50.090;19.702;2022-08-25T00:24:53;17.10;99.90
24017;DHT22;12222;50.090;19.702;2022-08-25T00:30:16;17.00;99.90
24017;DHT22;12222;50.090;19.702;2022-08-25T00:35:39;17.10;99.90
24017;DHT22;12222;50.090;19.702;2022-08-25T00:41:02;17.00;99.90
24017;DHT22;12222;50.090;19.702;2022-08-25T00:46:30;16.80;99.90
24017;DHT22;12222;50.090;19.702;2022-08-25T00:51:58;16.80;99.90
24017;DHT22;12222;50.090;19.702;2022-08-25T00:57:29;16.80;99.90
24017;DHT22;12222;50.090;19.702;2022-08-25T01:02:56;16.80;99.90
24017;DHT22;12222;50.090;19.702;2022-08-25T01:08:21;16.60;99.90
24017;DHT22;12222;50.090;19.702;2022-08-25T01:13:54;16.70;99.90
24017;DHT22;12222;50.090;19.702;2022-08-25T01:19:18;16.70;99.90
24017;DHT22;12222;50.090;19.702;2022-08-25T01:24:46;16.60;99.90
24017;DHT22;12222;50.090;19.702;2022-08-25T01:30:09;16.70;99.90
24017;DHT22;12222;50.090;19.702;2022-08-25T01:35:32;16.50;99.90
24017;DHT22;12222;50.090;19.702;2022-08-25T01:40:54;16.40;99.90
24017;DHT22;12222;50.090;19.702;2022-08-25T01:46:16;16.20;99.90
24017;DHT22;12222;50.090;19.702;2022-08-25T01:51:45;16.30;99.90
24017;DHT22;12222;50.090;19.702;2022-08-25T01:57:08;16.40;99.90
24017;DHT22;12222;50.090;19.702;2022-08-25T02:02:30;16.40;99.90
24017;DHT22;12222;50.090;19.702;2022-08-25T02:07:53;16.30;99.90
24017;DHT22;12222;50.090;19.702;2022-08-25T02:13:16;16.30;99.90
24017;DHT22;12222;50.090;19.702;2022-08-25T02:18:38;16.30;99.90
24017;DHT22;12222;50.090;19.702;2022-08-25T02:24:01;16.30;99.90
24017;DHT22;12222;50.090;19.702;2022-08-25T02:29:24;16.10;99.90
24017;DHT22;12222;50.090;19.702;2022-08-25T02:34:47;16.20;99.90
24017;DHT22;12222;50.090;19.702;2022-08-25T02:40:09;16.20;99.90
24017;DHT22;12222;50.090;19.702;2022-08-25T02:45:32;16.30;99.90
24017;DHT22;12222;50.090;19.702;2022-08-25T02:50:58;16.30;99.90
24017;DHT22;12222;50.090;19.702;2022-08-25T02:56:22;16.30;99.90
24017;DHT22;12222;50.090;19.702;2022-08-25T03:01:45;16.30;99.90
24017;DHT22;12222;50.090;19.702;2022-08-25T03:07:08;16.30;99.90
24017;DHT22;12222;50.090;19.702;2022-08-25T03:12:33;16.20;99.90
24017;DHT22;12222;50.090;19.702;2022-08-25T03:17:56;16.20;99.90
24017;DHT22;12222;50.090;19.702;2022-08-25T03:23:25;16.30;99.90
24017;DHT22;12222;50.090;19.702;2022-08-25T03:28:47;16.30;99.90
24017;DHT22;12222;50.090;19.702;2022-08-25T03:34:11;16.30;99.90
24017;DHT22;12222;50.090;19.702;2022-08-25T03:39:33;16.20;99.90
24017;DHT22;12222;50.090;19.702;2022-08-25T03:44:56;16.10;99.90
24017;DHT22;12222;50.090;19.702;2022-08-25T03:50:20;16.20;99.90
24017;DHT22;12222;50.090;19.702;2022-08-25T03:55:42;16.10;99.90
24017;DHT22;12222;50.090;19.702;2022-08-25T04:01:05;16.20;99.90
24017;DHT22;12222;50.090;19.702;2022-08-25T04:06:27;16.30;99.90
24017;DHT22;12222;50.090;19.702;2022-08-25T04:11:49;16.20;99.90
24017;DHT22;12222;50.090;19.702;2022-08-25T04:17:14;16.30;99.90
24017;DHT22;12222;50.090;19.702;2022-08-25T04:22:37;16.40;99.90
24017;DHT22;12222;50.090;19.702;2022-08-25T04:28:05;16.40;99.90
24017;DHT22;12222;50.090;19.702;2022-08-25T04:33:28;16.50;99.90
24017;DHT22;12222;50.090;19.702;2022-08-25T04:38:50;16.60;99.90
24017;DHT22;12222;50.090;19.702;2022-08-25T04:44:12;16.90;99.90
24017;DHT22;12222;50.090;19.702;2022-08-25T04:49:34;17.10;99.90
24017;DHT22;12222;50.090;19.702;2022-08-25T04:54:58;17.30;99.90
24017;DHT22;12222;50.090;19.702;2022-08-25T05:00:21;17.60;99.90
24017;DHT22;12222;50.090;19.702;2022-08-25T05:05:43;18.00;99.90
24017;DHT22;12222;50.090;19.702;2022-08-25T05:11:07;19.20;99.90
24017;DHT22;12222;50.090;19.702;2022-08-25T05:16:29;19.10;99.90
24017;DHT22;12222;50.090;19.702;2022-08-25T05:21:52;19.20;99.90
24017;DHT22;12222;50.090;19.702;2022-08-25T05:27:14;19.40;99.90
24017;DHT22;12222;50.090;19.702;2022-08-25T05:32:37;19.40;99.90
24017;DHT22;12222;50.090;19.702;2022-08-25T05:37:59;19.60;99.90
24017;DHT22;12222;50.090;19.702;2022-08-25T05:43:21;19.70;99.90
24017;DHT22;12222;50.090;19.702;2022-08-25T05:48:44;19.90;99.90
24017;DHT22;12222;50.090;19.702;2022-08-25T05:54:06;20.10;99.90
24017;DHT22;12222;50.090;19.702;2022-08-25T05:59:29;20.10;99.90
24017;DHT22;12222;50.090;19.702;2022-08-25T06:04:51;20.20;99.90
24017;DHT22;12222;50.090;19.702;2022-08-25T06:10:14;20.30;99.90
24017;DHT22;12222;50.090;19.702;2022-08-25T06:15:36;20.30;99.90
24017;DHT22;12222;50.090;19.702;2022-08-25T06:21:07;20.40;99.90
24017;DHT22;12222;50.090;19.702;2022-08-25T06:26:29;20.50;99.90
24017;DHT22;12222;50.090;19.702;2022-08-25T06:31:52;20.70;99.90
24017;DHT22;12222;50.090;19.702;2022-08-25T06:37:15;20.90;99.90
24017;DHT22;12222;50.090;19.702;2022-08-25T06:42:39;21.00;99.90
24017;DHT22;12222;50.090;19.702;2022-08-25T06:48:02;21.00;99.90
24017;DHT22;12222;50.090;19.702;2022-08-25T06:53:25;20.90;99.90
24017;DHT22;12222;50.090;19.702;2022-08-25T06:58:48;21.10;99.90
24017;DHT22;12222;50.090;19.702;2022-08-25T07:04:11;21.30;99.90
24017;DHT22;12222;50.090;19.702;2022-08-25T07:09:36;21.40;99.90
24017;DHT22;12222;50.090;19.702;2022-08-25T07:15:00;21.60;99.90
24017;DHT22;12222;50.090;19.702;2022-08-25T07:20:40;21.80;99.90
24017;DHT22;12222;50.090;19.702;2022-08-25T07:26:18;21.80;99.90
24017;DHT22;12222;50.090;19.702;2022-08-25T07:32:00;21.70;99.90
24017;DHT22;12222;50.090;19.702;2022-08-25T07:37:23;22.00;99.90
24017;DHT22;12222;50.090;19.702;2022-08-25T07:43:07;22.30;99.90
24017;DHT22;12222;50.090;19.702;2022-08-25T07:48:31;22.60;99.90
24017;DHT22;12222;50.090;19.702;2022-08-25T07:53:54;22.60;99.90
24017;DHT22;12222;50.090;19.702;2022-08-25T07:59:16;22.60;99.90
24017;DHT22;12222;50.090;19.702;2022-08-25T08:04:40;22.30;99.90
24017;DHT22;12222;50.090;19.702;2022-08-25T08:10:06;22.50;99.90
24017;DHT22;12222;50.090;19.702;2022-08-25T08:15:50;22.70;99.90
24017;DHT22;12222;50.090;19.702;2022-08-25T08:21:19;22.90;99.90
24017;DHT22;12222;50.090;19.702;2022-08-25T08:26:43;22.50;99.90
24017;DHT22;12222;50.090;19.702;2022-08-25T08:32:21;23.00;99.90
24017;DHT22;12222;50.090;19.702;2022-08-25T08:37:56;23.20;99.90
24017;DHT22;12222;50.090;19.702;2022-08-25T08:43:20;23.60;99.90
24017;DHT22;12222;50.090;19.702;2022-08-25T08:49:05;23.80;99.90
24017;DHT22;12222;50.090;19.702;2022-08-25T08:54:36;24.80;99.90
24017;DHT22;12222;50.090;19.702;2022-08-25T09:00:04;26.50;99.90
24017;DHT22;12222;50.090;19.702;2022-08-25T09:05:28;27.70;99.90
24017;DHT22;12222;50.090;19.702;2022-08-25T09:33:52;30.20;99.90
24017;DHT22;12222;50.090;19.702;2022-08-25T09:39:18;30.50;99.90
24017;DHT22;12222;50.090;19.702;2022-08-25T09:44:44;30.00;99.90
24017;DHT22;12222;50.090;19.702;2022-08-25T09:50:14;28.20;99.90
24017;DHT22;12222;50.090;19.702;2022-08-25T09:55:41;29.10;99.90
24017;DHT22;12222;50.090;19.702;2022-08-25T10:01:13;29.60;99.90
24017;DHT22;12222;50.090;19.702;2022-08-25T10:06:44;28.80;99.90
24017;DHT22;12222;50.090;19.702;2022-08-25T10:12:21;28.90;99.90
24017;DHT22;12222;50.090;19.702;2022-08-25T10:17:49;28.80;99.90
24017;DHT22;12222;50.090;19.702;2022-08-25T10:23:14;29.30;99.90
24017;DHT22;12222;50.090;19.702;2022-08-25T10:29:21;29.10;99.90
24017;DHT22;12222;50.090;19.702;2022-08-25T10:34:58;29.30;99.90
24017;DHT22;12222;50.090;19.702;2022-08-25T10:40:35;28.30;99.90
24017;DHT22;12222;50.090;19.702;2022-08-25T10:46:15;28.90;99.90
24017;DHT22;12222;50.090;19.702;2022-08-25T11:09:37;28.40;99.90
24017;DHT22;12222;50.090;19.702;2022-08-25T11:15:15;27.80;99.90
24017;DHT22;12222;50.090;19.702;2022-08-25T11:20:40;27.50;99.90
24017;DHT22;12222;50.090;19.702;2022-08-25T11:26:11;27.50;99.90
24017;DHT22;12222;50.090;19.702;2022-08-25T11:31:43;27.40;99.90
24017;DHT22;12222;50.090;19.702;2022-08-25T11:37:21;27.60;99.90
24017;DHT22;12222;50.090;19.702;2022-08-25T11:54:35;28.40;99.90
24017;DHT22;12222;50.090;19.702;2022-08-25T12:06:25;28.10;99.90
24017;DHT22;12222;50.090;19.702;2022-08-25T12:11:56;28.30;99.90
24017;DHT22;12222;50.090;19.702;2022-08-25T12:17:23;28.20;99.90
24017;DHT22;12222;50.090;19.702;2022-08-25T12:22:53;28.20;99.90
24017;DHT22;12222;50.090;19.702;2022-08-25T12:40:35;28.30;99.90
24017;DHT22;12222;50.090;19.702;2022-08-25T12:52:06;28.00;99.90
24017;DHT22;12222;50.090;19.702;2022-08-25T12:57:40;28.00;99.90
24017;DHT22;12222;50.090;19.702;2022-08-25T13:03:11;28.00;99.90
24017;DHT22;12222;50.090;19.702;2022-08-25T13:14:37;27.70;99.90
24017;DHT22;12222;50.090;19.702;2022-08-25T13:25:46;27.90;99.90
24017;DHT22;12222;50.090;19.702;2022-08-25T13:31:16;28.20;99.90
24017;DHT22;12222;50.090;19.702;2022-08-25T13:36:46;28.30;99.90
24017;DHT22;12222;50.090;19.702;2022-08-25T13:42:28;28.20;99.90
24017;DHT22;12222;50.090;19.702;2022-08-25T13:47:52;27.80;99.90
24017;DHT22;12222;50.090;19.702;2022-08-25T13:53:23;27.60;99.90
24017;DHT22;12222;50.090;19.702;2022-08-25T13:58:48;27.70;99.90
24017;DHT22;12222;50.090;19.702;2022-08-25T14:04:25;27.70;99.90
24017;DHT22;12222;50.090;19.702;2022-08-25T14:09:50;27.50;99.90
24017;DHT22;12222;50.090;19.702;2022-08-25T14:20:43;27.60;99.90
24017;DHT22;12222;50.090;19.702;2022-08-25T14:26:06;27.30;99.90
24017;DHT22;12222;50.090;19.702;2022-08-25T14:31:31;27.20;99.90
24017;DHT22;12222;50.090;19.702;2022-08-25T14:36:55;27.10;99.90
24017;DHT22;12222;50.090;19.702;2022-08-25T14:42:18;27.10;99.90
24017;DHT22;12222;50.090;19.702;2022-08-25T14:47:41;27.20;99.90
24017;DHT22;12222;50.090;19.702;2022-08-25T14:53:10;27.10;99.90
24017;DHT22;12222;50.090;19.702;2022-08-25T14:58:33;27.10;99.90
24017;DHT22;12222;50.090;19.702;2022-08-25T15:04:02;27.10;99.90
24017;DHT22;12222;50.090;19.702;2022-08-25T15:09:26;27.00;99.90
24017;DHT22;12222;50.090;19.702;2022-08-25T15:14:54;26.90;99.90
24017;DHT22;12222;50.090;19.702;2022-08-25T15:20:17;26.90;99.90
24017;DHT22;12222;50.090;19.702;2022-08-25T15:25:41;26.80;99.90
24017;DHT22;12222;50.090;19.702;2022-08-25T15:31:03;26.80;99.90
24017;DHT22;12222;50.090;19.702;2022-08-25T15:36:29;26.80;99.90
24017;DHT22;12222;50.090;19.702;2022-08-25T15:41:51;26.80;99.90
24017;DHT22;12222;50.090;19.702;2022-08-25T15:47:13;26.60;99.90
24017;DHT22;12222;50.090;19.702;2022-08-25T15:52:38;26.60;99.90
24017;DHT22;12222;50.090;19.702;2022-08-25T15:58:09;26.60;99.90
24017;DHT22;12222;50.090;19.702;2022-08-25T16:03:31;26.60;99.90
24017;DHT22;12222;50.090;19.702;2022-08-25T16:08:53;26.40;99.90
24017;DHT22;12222;50.090;19.702;2022-08-25T16:14:16;26.40;99.90
24017;DHT22;12222;50.090;19.702;2022-08-25T16:19:39;26.30;99.90
24017;DHT22;12222;50.090;19.702;2022-08-25T16:25:03;26.10;99.90
24017;DHT22;12222;50.090;19.702;2022-08-25T16:30:27;25.90;99.90
24017;DHT22;12222;50.090;19.702;2022-08-25T16:35:50;25.90;99.90
24017;DHT22;12222;50.090;19.702;2022-08-25T16:41:16;25.80;99.90
24017;DHT22;12222;50.090;19.702;2022-08-25T16:46:40;25.70;99.90
24017;DHT22;12222;50.090;19.702;2022-08-25T16:52:06;25.40;99.90
24017;DHT22;12222;50.090;19.702;2022-08-25T16:57:52;25.10;99.90
24017;DHT22;12222;50.090;19.702;2022-08-25T17:03:15;24.80;99.90
24017;DHT22;12222;50.090;19.702;2022-08-25T17:08:37;24.70;99.90
24017;DHT22;12222;50.090;19.702;2022-08-25T17:14:02;24.60;99.90
24017;DHT22;12222;50.090;19.702;2022-08-25T17:19:32;24.40;99.90
24017;DHT22;12222;50.090;19.702;2022-08-25T17:24:54;24.10;99.90
24017;DHT22;12222;50.090;19.702;2022-08-25T17:30:22;23.70;99.90
24017;DHT22;12222;50.090;19.702;2022-08-25T17:35:49;23.50;99.90
24017;DHT22;12222;50.090;19.702;2022-08-25T17:41:14;23.40;99.90
24017;DHT22;12222;50.090;19.702;2022-08-25T17:46:36;23.00;99.90
24017;DHT22;12222;50.090;19.702;2022-08-25T17:52:08;22.60;99.90
24017;DHT22;12222;50.090;19.702;2022-08-25T17:57:30;22.30;99.90
24017;DHT22;12222;50.090;19.702;2022-08-25T18:02:53;22.00;99.90
24017;DHT22;12222;50.090;19.702;2022-08-25T18:08:16;21.80;99.90
24017;DHT22;12222;50.090;19.702;2022-08-25T18:13:40;21.60;99.90
24017;DHT22;12222;50.090;19.702;2022-08-25T18:19:04;21.40;99.90
24017;DHT22;12222;50.090;19.702;2022-08-25T18:24:31;21.10;99.90
24017;DHT22;12222;50.090;19.702;2022-08-25T18:29:56;21.00;99.90
24017;DHT22;12222;50.090;19.702;2022-08-25T18:35:19;20.80;99.90
24017;DHT22;12222;50.090;19.702;2022-08-25T18:40:45;20.70;99.90
24017;DHT22;12222;50.090;19.702;2022-08-25T18:46:08;20.60;99.90
24017;DHT22;12222;50.090;19.702;2022-08-25T18:51:32;20.60;99.90
24017;DHT22;12222;50.090;19.702;2022-08-25T18:56:55;20.50;99.90
24017;DHT22;12222;50.090;19.702;2022-08-25T19:02:18;20.30;99.90
24017;DHT22;12222;50.090;19.702;2022-08-25T19:07:42;20.10;99.90
24017;DHT22;12222;50.090;19.702;2022-08-25T19:13:13;20.00;99.90
24017;DHT22;12222;50.090;19.702;2022-08-25T19:18:36;19.90;99.90
24017;DHT22;12222;50.090;19.702;2022-08-25T19:24:00;19.70;99.90
24017;DHT22;12222;50.090;19.702;2022-08-25T19:29:24;19.60;99.90
24017;DHT22;12222;50.090;19.702;2022-08-25T19:34:51;19.50;99.90
24017;DHT22;12222;50.090;19.702;2022-08-25T19:40:17;19.50;99.90
24017;DHT22;12222;50.090;19.702;2022-08-25T19:45:46;19.50;99.90
24017;DHT22;12222;50.090;19.702;2022-08-25T19:51:11;19.30;99.90
24017;DHT22;12222;50.090;19.702;2022-08-25T19:56:34;19.30;99.90
24017;DHT22;12222;50.090;19.702;2022-08-25T20:01:58;19.10;99.90
24017;DHT22;12222;50.090;19.702;2022-08-25T20:07:25;19.00;99.90
24017;DHT22;12222;50.090;19.702;2022-08-25T20:12:49;18.90;99.90
24017;DHT22;12222;50.090;19.702;2022-08-25T20:18:14;19.00;99.90
24017;DHT22;12222;50.090;19.702;2022-08-25T20:23:39;18.90;99.90
24017;DHT22;12222;50.090;19.702;2022-08-25T20:29:20;18.90;99.90
24017;DHT22;12222;50.090;19.702;2022-08-25T20:34:45;18.80;99.90
24017;DHT22;12222;50.090;19.702;2022-08-25T20:40:10;18.70;99.90
24017;DHT22;12222;50.090;19.702;2022-08-25T20:45:34;18.70;99.90
24017;DHT22;12222;50.090;19.702;2022-08-25T20:51:06;18.70;99.90
24017;DHT22;12222;50.090;19.702;2022-08-25T20:56:29;18.60;99.90
24017;DHT22;12222;50.090;19.702;2022-08-25T21:01:54;18.50;99.90
24017;DHT22;12222;50.090;19.702;2022-08-25T21:07:17;18.40;99.90
24017;DHT22;12222;50.090;19.702;2022-08-25T21:12:41;18.40;99.90
24017;DHT22;12222;50.090;19.702;2022-08-25T21:18:04;18.40;99.90
24017;DHT22;12222;50.090;19.702;2022-08-25T21:23:27;18.40;99.90
24017;DHT22;12222;50.090;19.702;2022-08-25T21:28:51;18.40;99.90
24017;DHT22;12222;50.090;19.702;2022-08-25T21:34:16;18.40;99.90
24017;DHT22;12222;50.090;19.702;2022-08-25T21:39:40;18.30;99.90
24017;DHT22;12222;50.090;19.702;2022-08-25T21:45:02;18.30;99.90
24017;DHT22;12222;50.090;19.702;2022-08-25T21:50:28;18.30;99.90
24017;DHT22;12222;50.090;19.702;2022-08-25T21:55:52;18.30;99.90
24017;DHT22;12222;50.090;19.702;2022-08-25T22:01:16;18.40;99.90
24017;DHT22;12222;50.090;19.702;2022-08-25T22:06:40;18.50;99.90
24017;DHT22;12222;50.090;19.702;2022-08-25T22:12:04;18.40;99.90
24017;DHT22;12222;50.090;19.702;2022-08-25T22:17:26;18.30;99.90
24017;DHT22;12222;50.090;19.702;2022-08-25T22:22:49;18.10;99.90
24017;DHT22;12222;50.090;19.702;2022-08-25T22:28:11;18.10;99.90
24017;DHT22;12222;50.090;19.702;2022-08-25T22:33:35;18.00;99.90
24017;DHT22;12222;50.090;19.702;2022-08-25T22:39:02;17.90;99.90
24017;DHT22;12222;50.090;19.702;2022-08-25T22:44:25;17.80;99.90
24017;DHT22;12222;50.090;19.702;2022-08-25T22:49:47;17.70;99.90
24017;DHT22;12222;50.090;19.702;2022-08-25T22:55:10;17.60;99.90
24017;DHT22;12222;50.090;19.702;2022-08-25T23:00:32;17.60;99.90
24017;DHT22;12222;50.090;19.702;2022-08-25T23:05:56;17.50;99.90
24017;DHT22;12222;50.090;19.702;2022-08-25T23:11:19;17.30;99.90
24017;DHT22;12222;50.090;19.702;2022-08-25T23:16:42;17.20;99.90
24017;DHT22;12222;50.090;19.702;2022-08-25T23:22:05;17.10;99.90
24017;DHT22;12222;50.090;19.702;2022-08-25T23:27:31;17.00;99.90
24017;DHT22;12222;50.090;19.702;2022-08-25T23:32:56;16.90;99.90
24017;DHT22;12222;50.090;19.702;2022-08-25T23:38:18;16.80;99.90
24017;DHT22;12222;50.090;19.702;2022-08-25T23:43:40;16.80;99.90
24017;DHT22;12222;50.090;19.702;2022-08-25T23:49:04;16.70;99.90
24017;DHT22;12222;50.090;19.702;2022-08-25T23:54:29;16.70;99.90
24017;DHT22;12222;50.090;19.702;2022-08-25T23:59:52;16.70;99.90
